Schneifelwetter: Wetterstation Hallschlag, 537 m . NN
Wetterdaten: Donnerstag, 16.10.2008
Datum Zeit Temp. A. Temp. 2 Feuchte A. Luftdruck Regen Wind Richtung Richtung Sonnenschein Helligkeit T Regen Taupunkt Windchill
16.10.2008 00:02 11,3 C 11,5 C 98 % 1012 hPa 0,0 l/m 31,3 km/h (5 Bft) W-SW22.5 255 0 min 0 lux 0,00 min 11,0 C 2,2 C
16.10.2008 00:17 11,2 C 11,3 C 98 % 1012 hPa 0,0 l/m 29,1 km/h (5 Bft) W-SW45 250 0 min 0 lux 0,00 min 10,9 C 2,5 C
16.10.2008 00:32 11,2 C 11,4 C 98 % 1012 hPa 0,0 l/m 33,1 km/h (5 Bft) W-SW22.5 250 0 min 0 lux 0,00 min 10,9 C 1,8 C
16.10.2008 00:47 11,2 C 11,3 C 98 % 1012 hPa 0,0 l/m 26,3 km/h (4 Bft) W-SW22.5 255 0 min 0 lux 0,00 min 10,9 C 3,1 C
16.10.2008 01:02 11,1 C 11,2 C 98 % 1012 hPa 0,0 l/m 31,8 km/h (5 Bft) W22.5 260 0 min 0 lux 0,00 min 10,8 C 1,9 C
16.10.2008 01:17 11,0 C 11,2 C 97 % 1011 hPa 0,0 l/m 29,0 km/h (5 Bft) W-SW22.5 255 0 min 0 lux 0,00 min 10,5 C 2,3 C
16.10.2008 01:32 10,9 C 10,9 C 98 % 1012 hPa 0,0 l/m 30,6 km/h (5 Bft) W22.5 260 0 min 0 lux 0,00 min 10,6 C 1,8 C
16.10.2008 01:47 10,8 C 10,8 C 98 % 1011 hPa 0,0 l/m 28,7 km/h (4 Bft) W-SW22.5 255 0 min 0 lux 0,00 min 10,5 C 2,1 C
16.10.2008 02:02 10,8 C 10,7 C 98 % 1011 hPa 0,0 l/m 34,6 km/h (5 Bft) W22.5 260 0 min 0 lux 0,00 min 10,5 C 0,9 C
16.10.2008 02:17 10,7 C 10,6 C 98 % 1012 hPa 0,0 l/m 33,6 km/h (5 Bft) W45 260 0 min 0 lux 0,00 min 10,4 C 0,9 C
16.10.2008 02:32 10,5 C 10,5 C 97 % 1012 hPa 0,0 l/m 26,5 km/h (4 Bft) W22.5 265 0 min 0 lux 0,00 min 10,0 C 2,1 C
16.10.2008 02:47 10,5 C 10,4 C 97 % 1011 hPa 0,0 l/m 30,7 km/h (5 Bft) W-SW22.5 255 0 min 0 lux 0,00 min 10,0 C 1,2 C
16.10.2008 03:02 10,4 C 10,3 C 98 % 1012 hPa 0,0 l/m 30,8 km/h (5 Bft) W-SW22.5 255 0 min 0 lux 0,00 min 10,1 C 1,1 C
16.10.2008 03:17 10,2 C 10,2 C 98 % 1011 hPa 0,0 l/m 23,5 km/h (4 Bft) W-SW45 255 0 min 0 lux 0,00 min 9,9 C 2,5 C
16.10.2008 03:32 10,0 C 10,0 C 98 % 1012 hPa 0,0 l/m 29,1 km/h (5 Bft) W45 260 0 min 0 lux 0,00 min 9,7 C 0,9 C
16.10.2008 03:47 9,9 C 9,8 C 98 % 1011 hPa 0,0 l/m 31,8 km/h (5 Bft) W-SW45 255 0 min 0 lux 0,00 min 9,6 C 0,1 C
16.10.2008 04:02 9,7 C 9,6 C 98 % 1011 hPa 0,0 l/m 17,9 km/h (3 Bft) W22.5 260 0 min 0 lux 0,00 min 9,4 C 3,6 C
16.10.2008 04:17 9,6 C 9,5 C 98 % 1011 hPa 0,0 l/m 20,5 km/h (4 Bft) W22.5 260 0 min 0 lux 0,00 min 9,3 C 2,6 C
16.10.2008 04:32 9,4 C 9,3 C 98 % 1011 hPa 0,0 l/m 15,8 km/h (3 Bft) W22.5 265 0 min 0 lux 0,00 min 9,1 C 4,1 C
16.10.2008 04:47 9,3 C 9,1 C 98 % 1011 hPa 0,0 l/m 18,7 km/h (3 Bft) W-SW22.5 255 0 min 0 lux 0,00 min 9,0 C 2,8 C
16.10.2008 05:02 9,2 C 9,1 C 98 % 1011 hPa 0,9 l/m 16,6 km/h (3 Bft) W22.5 260 0 min 0 lux 15,00 min 8,9 C 3,5 C
16.10.2008 05:17 9,2 C 9,1 C 98 % 1011 hPa 0,0 l/m 22,6 km/h (4 Bft) W45 265 0 min 0 lux 0,00 min 8,9 C 1,4 C
16.10.2008 05:32 9,2 C 9,1 C 98 % 1011 hPa 0,0 l/m 34,1 km/h (5 Bft) W-SW22.5 255 0 min 0 lux 0,00 min 8,9 C -1,3 C
16.10.2008 05:47 9,1 C 9,0 C 98 % 1011 hPa 0,0 l/m 30,1 km/h (5 Bft) W-SW45 255 0 min 0 lux 0,00 min 8,8 C -0,6 C
16.10.2008 06:02 8,9 C 8,7 C 97 % 1011 hPa 0,0 l/m 30,6 km/h (5 Bft) W-SW22.5 255 0 min 0 lux 0,00 min 8,4 C -1,0 C
16.10.2008 06:17 8,8 C 8,7 C 98 % 1011 hPa 0,0 l/m 20,8 km/h (4 Bft) W22.5 260 0 min 0 lux 0,00 min 8,5 C 1,5 C
16.10.2008 06:32 8,8 C 8,7 C 98 % 1011 hPa 0,0 l/m 23,7 km/h (4 Bft) W-SW45 250 0 min 0 lux 0,00 min 8,5 C 0,6 C
16.10.2008 06:47 8,7 C 8,7 C 98 % 1011 hPa 0,0 l/m 23,6 km/h (4 Bft) W-SW22.5 255 0 min 0 lux 0,00 min 8,4 C 0,5 C
16.10.2008 07:02 8,7 C 8,7 C 98 % 1011 hPa 0,0 l/m 21,5 km/h (4 Bft) W-SW45 255 0 min 0 lux 0,00 min 8,4 C 1,1 C
16.10.2008 07:16 8,7 C 8,7 C 98 % 1011 hPa 0,0 l/m 29,5 km/h (5 Bft) W-SW22.5 255 0 min 0 lux 0,00 min 8,4 C -1,1 C
16.10.2008 07:31 8,7 C 8,7 C 98 % 1011 hPa 0,0 l/m 28,0 km/h (4 Bft) W-SW45 250 0 min 0 lux 0,00 min 8,4 C -0,7 C
16.10.2008 07:46 8,6 C 8,6 C 98 % 1011 hPa 0,0 l/m 22,2 km/h (4 Bft) W-SW22.5 250 0 min 0 lux 0,00 min 8,3 C 0,8 C
16.10.2008 08:01 8,6 C 8,5 C 98 % 1011 hPa 0,0 l/m 18,7 km/h (3 Bft) W22.5 260 0 min 61 lux 0,00 min 8,3 C 1,9 C
16.10.2008 08:16 8,5 C 8,4 C 98 % 1011 hPa 0,0 l/m 23,6 km/h (4 Bft) W-SW22.5 255 0 min 316 lux 0,00 min 8,2 C 0,2 C
16.10.2008 08:31 8,4 C 8,3 C 98 % 1011 hPa 0,0 l/m 25,3 km/h (4 Bft) W45 260 0 min 1,16 klux 0,00 min 8,1 C -0,4 C
16.10.2008 08:46 8,4 C 8,2 C 98 % 1011 hPa 0,3 l/m 18,2 km/h (3 Bft) W-SW22.5 250 0 min 1,92 klux 15,00 min 8,1 C 1,9 C
16.10.2008 09:01 8,3 C 8,2 C 98 % 1011 hPa 0,0 l/m 20,1 km/h (4 Bft) W-SW22.5 250 0 min 2,27 klux 0,00 min 8,0 C 1,1 C
16.10.2008 09:16 8,3 C 8,2 C 98 % 1011 hPa 0,3 l/m 19,6 km/h (3 Bft) W-SW45 255 0 min 2,61 klux 15,00 min 8,0 C 1,2 C
16.10.2008 09:31 8,4 C 8,2 C 98 % 1010 hPa 0,0 l/m 24,7 km/h (4 Bft) W-SW45 250 0 min 4,18 klux 0,00 min 8,1 C -0,3 C
16.10.2008 09:46 8,5 C 8,3 C 98 % 1011 hPa 0,0 l/m 18,9 km/h (3 Bft) W22.5 260 0 min 6,88 klux 0,00 min 8,2 C 1,7 C
16.10.2008 10:01 8,7 C 8,5 C 98 % 1011 hPa 0,0 l/m 14,5 km/h (3 Bft) W-SW22.5 255 0 min 12,5 klux 0,00 min 8,4 C 3,8 C
16.10.2008 10:16 9,1 C 8,7 C 98 % 1010 hPa 0,0 l/m 22,5 km/h (4 Bft) W-SW22.5 255 0 min 11,7 klux 0,00 min 8,8 C 1,3 C
16.10.2008 10:31 8,9 C 8,7 C 97 % 1011 hPa 0,0 l/m 24,8 km/h (4 Bft) W-SW45 255 0 min 6,39 klux 0,00 min 8,4 C 0,4 C
16.10.2008 10:46 9,0 C 8,7 C 97 % 1011 hPa 0,0 l/m 29,1 km/h (5 Bft) W22.5 260 0 min 7,95 klux 0,00 min 8,5 C -0,5 C
16.10.2008 11:01 9,0 C 8,8 C 97 % 1010 hPa 0,0 l/m 31,1 km/h (5 Bft) W-SW67.5 245 0 min 11,0 klux 0,00 min 8,5 C -1,0 C
16.10.2008 11:16 9,2 C 8,9 C 97 % 1010 hPa 0,0 l/m 22,5 km/h (4 Bft) W22.5 260 0 min 14,6 klux 0,00 min 8,7 C 1,5 C
16.10.2008 11:31 9,5 C 9,2 C 96 % 1010 hPa 0,0 l/m 24,5 km/h (4 Bft) W22.5 265 0 min 17,2 klux 0,00 min 8,9 C 1,3 C
16.10.2008 11:46 9,7 C 9,6 C 96 % 1010 hPa 0,0 l/m 29,7 km/h (5 Bft) W-SW22.5 250 0 min 28,5 klux 0,00 min 9,1 C 0,3 C
16.10.2008 12:01 10,2 C 10,1 C 95 % 1010 hPa 0,0 l/m 23,7 km/h (4 Bft) W-SW22.5 250 0 min 23,7 klux 0,00 min 9,4 C 2,4 C
16.10.2008 12:16 10,4 C 10,2 C 94 % 1010 hPa 0,0 l/m 24,2 km/h (4 Bft) W-SW22.5 255 0 min 26,6 klux 0,00 min 9,5 C 2,6 C
16.10.2008 12:31 10,4 C 10,1 C 94 % 1010 hPa 0,0 l/m 22,6 km/h (4 Bft) W22.5 260 0 min 28,0 klux 0,00 min 9,5 C 3,0 C
16.10.2008 12:46 10,1 C 9,6 C 93 % 1010 hPa 0,0 l/m 23,0 km/h (4 Bft) W22.5 265 0 min 10,5 klux 0,00 min 9,0 C 2,5 C
16.10.2008 13:01 9,5 C 9,1 C 94 % 1010 hPa 0,0 l/m 29,7 km/h (5 Bft) W-SW22.5 255 0 min 6,68 klux 0,00 min 8,6 C 0,0 C
16.10.2008 13:16 9,2 C 8,7 C 95 % 1010 hPa 0,0 l/m 26,8 km/h (4 Bft) W22.5 260 0 min 3,68 klux 0,00 min 8,4 C 0,3 C
16.10.2008 13:31 8,5 C 8,2 C 94 % 1010 hPa 0,0 l/m 31,8 km/h (5 Bft) W22.5 270 0 min 3,45 klux 0,00 min 7,6 C -1,8 C
16.10.2008 13:46 7,9 C 7,8 C 92 % 1010 hPa 0,0 l/m 26,3 km/h (4 Bft) W22.5 275 0 min 3,22 klux 0,00 min 6,7 C -1,4 C
16.10.2008 14:01 7,4 C 7,0 C 92 % 1010 hPa 0,0 l/m 44,5 km/h (6 Bft) W22.5 265 0 min 4,80 klux 0,00 min 6,2 C -5,6 C
16.10.2008 14:16 7,1 C 6,6 C 93 % 1010 hPa 0,0 l/m 20,0 km/h (4 Bft) W22.5 270 0 min 5,21 klux 0,00 min 6,0 C -0,5 C
16.10.2008 14:31 7,0 C 6,6 C 94 % 1010 hPa 0,0 l/m 18,8 km/h (3 Bft) W-SW22.5 255 0 min 4,48 klux 0,00 min 6,1 C -0,1 C
16.10.2008 14:46 7,2 C 6,8 C 95 % 1010 hPa 0,0 l/m 12,8 km/h (3 Bft) SW45 235 0 min 10,4 klux 0,00 min 6,5 C 2,8 C
16.10.2008 15:01 7,6 C 7,3 C 95 % 1010 hPa 0,0 l/m 15,4 km/h (3 Bft) W-SW45 250 0 min 12,9 klux 0,00 min 6,9 C 2,0 C
16.10.2008 15:16 8,1 C 8,0 C 96 % 1010 hPa 0,0 l/m 23,4 km/h (4 Bft) W22.5 260 0 min 20,3 klux 0,00 min 7,5 C -0,3 C
16.10.2008 15:31 8,6 C 8,6 C 95 % 1010 hPa 0,0 l/m 20,4 km/h (4 Bft) W22.5 265 0 min 19,2 klux 0,00 min 7,8 C 1,3 C
16.10.2008 15:46 7,6 C 7,3 C 92 % 1010 hPa 0,0 l/m 28,0 km/h (4 Bft) W45 275 0 min 6,17 klux 0,00 min 6,4 C -2,2 C
16.10.2008 16:01 7,0 C 6,8 C 93 % 1010 hPa 0,0 l/m 19,3 km/h (3 Bft) W45 270 0 min 8,77 klux 0,00 min 5,9 C -0,3 C
16.10.2008 16:16 7,2 C 7,0 C 94 % 1010 hPa 0,0 l/m 21,1 km/h (4 Bft) W22.5 265 0 min 17,6 klux 0,00 min 6,3 C -0,7 C
16.10.2008 16:31 7,5 C 8,1 C 94 % 1010 hPa 0,0 l/m 22,2 km/h (4 Bft) W22.5 265 0 min 35,1 klux 0,00 min 6,6 C -0,7 C
16.10.2008 16:46 7,5 C 8,4 C 93 % 1010 hPa 0,0 l/m 25,3 km/h (4 Bft) W22.5 270 0 min 32,3 klux 0,00 min 6,4 C -1,6 C
16.10.2008 17:01 7,6 C 8,9 C 92 % 1010 hPa 0,0 l/m 32,9 km/h (5 Bft) W22.5 270 0 min 22,9 klux 0,00 min 6,4 C -3,4 C
16.10.2008 17:16 7,6 C 9,4 C 92 % 1010 hPa 0,0 l/m 26,0 km/h (4 Bft) W22.5 265 0 min 26,0 klux 0,00 min 6,4 C -1,7 C
16.10.2008 17:31 7,5 C 8,6 C 92 % 1011 hPa 0,0 l/m 22,0 km/h (4 Bft) W22.5 270 0 min 19,1 klux 0,00 min 6,3 C -0,6 C
16.10.2008 17:47 7,2 C 7,6 C 92 % 1011 hPa 0,0 l/m 24,8 km/h (4 Bft) W22.5 275 0 min 3,69 klux 0,00 min 6,0 C -1,9 C
16.10.2008 18:02 6,8 C 6,8 C 92 % 1011 hPa 0,0 l/m 16,1 km/h (3 Bft) W-NW45 290 0 min 1,46 klux 0,00 min 5,6 C 0,7 C
16.10.2008 18:17 6,5 C 6,2 C 93 % 1011 hPa 0,0 l/m 12,7 km/h (3 Bft) W22.5 265 0 min 1,73 klux 0,00 min 5,5 C 2,1 C
16.10.2008 18:32 6,1 C 5,8 C 94 % 1011 hPa 0,0 l/m 18,0 km/h (3 Bft) W22.5 265 0 min 1,10 klux 0,00 min 5,2 C -1,0 C
16.10.2008 18:47 5,9 C 5,7 C 94 % 1012 hPa 0,0 l/m 13,3 km/h (3 Bft) W-SW22.5 250 0 min 174 lux 0,00 min 5,0 C 1,1 C
16.10.2008 19:02 6,0 C 5,4 C 95 % 1012 hPa 9,0 l/m 17,5 km/h (3 Bft) W22.5 270 0 min 108 lux 15,00 min 5,3 C -0,9 C
16.10.2008 19:17 5,2 C 4,7 C 94 % 1012 hPa 0,0 l/m 11,0 km/h (2 Bft) W22.5 265 0 min 33 lux 0,00 min 4,3 C 1,6 C
16.10.2008 19:32 4,7 C 4,1 C 95 % 1013 hPa 0,0 l/m 10,3 km/h (2 Bft) W22.5 270 0 min 0 lux 0,00 min 4,0 C 1,5 C
16.10.2008 19:47 4,3 C 3,5 C 95 % 1013 hPa 0,0 l/m 0,0 km/h (0 Bft) W 260 0 min 0 lux 0,00 min 3,6 C 4,3 C
16.10.2008 20:02 4,1 C 3,7 C 96 % 1013 hPa 0,0 l/m 5,0 km/h (1 Bft) W 260 0 min 0 lux 0,00 min 3,5 C 4,1 C
16.10.2008 20:17 4,3 C 3,7 C 96 % 1013 hPa 0,0 l/m 7,0 km/h (2 Bft) W22.5 260 0 min 0 lux 0,00 min 3,7 C 3,8 C
16.10.2008 20:32 4,2 C 3,3 C 96 % 1013 hPa 0,0 l/m 7,9 km/h (2 Bft) W22.5 260 0 min 0 lux 0,00 min 3,6 C 2,8 C
16.10.2008 20:47 3,9 C 3,0 C 96 % 1013 hPa 0,3 l/m 8,9 km/h (2 Bft) W22.5 265 0 min 0 lux 15,00 min 3,3 C 1,7 C
16.10.2008 21:02 3,6 C 2,6 C 96 % 1014 hPa 0,0 l/m 6,1 km/h (2 Bft) W-SW 255 0 min 0 lux 0,00 min 3,0 C 3,6 C
16.10.2008 21:17 3,5 C 2,8 C 97 % 1014 hPa 0,0 l/m 19,6 km/h (3 Bft) W22.5 265 0 min 0 lux 0,00 min 3,1 C -4,9 C
16.10.2008 21:32 4,1 C 3,4 C 97 % 1014 hPa 0,0 l/m 17,4 km/h (3 Bft) W22.5 265 0 min 0 lux 0,00 min 3,7 C -3,2 C
16.10.2008 21:47 3,9 C 2,9 C 96 % 1014 hPa 0,0 l/m 5,9 km/h (2 Bft) W-SW 240 0 min 0 lux 0,00 min 3,3 C 3,9 C
16.10.2008 22:02 3,4 C 2,3 C 96 % 1014 hPa 0,0 l/m 5,1 km/h (1 Bft) W-SW 240 0 min 0 lux 0,00 min 2,8 C 3,4 C
16.10.2008 22:17 3,0 C 1,9 C 96 % 1014 hPa 0,0 l/m 3,9 km/h (1 Bft) W-SW 250 0 min 0 lux 0,00 min 2,4 C 3,0 C
16.10.2008 22:32 2,7 C 1,7 C 97 % 1014 hPa 0,0 l/m 4,9 km/h (1 Bft) W-SW 250 0 min 0 lux 0,00 min 2,3 C 2,7 C
16.10.2008 22:47 2,6 C 1,6 C 97 % 1015 hPa 0,0 l/m 9,3 km/h (2 Bft) W22.5 260 0 min 0 lux 0,00 min 2,2 C -0,0 C
16.10.2008 23:02 2,7 C 1,9 C 98 % 1015 hPa 0,0 l/m 7,9 km/h (2 Bft) W-SW 255 0 min 0 lux 0,00 min 2,4 C 1,3 C
16.10.2008 23:17 3,0 C 2,3 C 98 % 1015 hPa 0,0 l/m 4,1 km/h (1 Bft) W-SW 255 0 min 0 lux 0,00 min 2,7 C 3,0 C
16.10.2008 23:32 3,1 C 2,4 C 98 % 1015 hPa 0,0 l/m 5,5 km/h (1 Bft) W-SW 240 0 min 0 lux 0,00 min 2,8 C 3,1 C
16.10.2008 23:47 3,1 C 2,5 C 98 % 1015 hPa 0,0 l/m 10,7 km/h (2 Bft) W-SW22.5 255 0 min 0 lux 0,00 min 2,8 C -0,5 C
_ Min-Zeit 22:47 22:47 13:46 09:31 - 19:47 - - - - - 22:47 14:01
Minimum _ 2,6 C 1,6 C 92 % 1010 hPa - 0,0 km/h (0 Bft) - - - - - 2,2 C -5,6 C
_ Max-Zeit 00:02 00:02 00:02 22:47 19:02 14:01 - - 00:02 16:31 05:02 00:02 19:47
Maximum _ 11,3 C 11,5 C 98 % 1015 hPa 9,0 l/m 44,5 km/h
W (6 Bft)
- - 0 min 35,1 klux 15,00 min 11,0 C 4,3 C
Durchschnitt _ 7,8 C 7,6 C 96 % 1012 hPa #10,8 l/m 21,2 km/h (4 Bft) W - #0 min. 5,09 klux #1:15 h 7,3 C 0,9 C